createdAt,value
2022-12-18T00:01:49.510Z,98.69
2022-12-18T00:04:52.762Z,98.80
2022-12-18T00:07:55.655Z,98.19
2022-12-18T00:11:07.086Z,97.99
2022-12-18T00:14:12.588Z,98.03
2022-12-18T00:17:15.802Z,98.31
2022-12-18T00:20:24.721Z,98.71
2022-12-18T00:23:28.757Z,99.51
2022-12-18T00:26:34.627Z,98.99
2022-12-18T00:29:41.015Z,98.65
2022-12-18T00:32:44.174Z,98.78
2022-12-18T00:35:47.327Z,99.04
2022-12-18T00:38:50.477Z,99.45
2022-12-18T00:42:12.645Z,98.88
2022-12-18T00:45:16.067Z,98.35
2022-12-18T00:48:19.246Z,98.32
2022-12-18T00:51:22.155Z,98.80
2022-12-18T00:54:25.475Z,99.15
2022-12-18T00:57:28.439Z,99.16
2022-12-18T01:00:31.748Z,99.88
2022-12-18T01:03:34.608Z,99.70
2022-12-18T01:06:38.091Z,99.46
2022-12-18T01:09:41.252Z,98.82
2022-12-18T01:12:44.969Z,99.04
2022-12-18T01:15:52.599Z,99.36
2022-12-18T01:18:55.877Z,99.71
2022-12-18T01:22:00.480Z,100.00
2022-12-18T01:25:05.384Z,100.00
2022-12-18T01:28:08.354Z,100.00
2022-12-18T01:31:22.863Z,100.00
2022-12-18T01:34:25.836Z,100.00
2022-12-18T01:37:29.014Z,100.00
2022-12-18T01:40:33.290Z,100.00
2022-12-18T01:43:44.963Z,100.00
2022-12-18T01:46:47.804Z,100.00
2022-12-18T01:49:51.666Z,100.00
2022-12-18T01:53:00.527Z,100.00
2022-12-18T01:56:04.385Z,100.00
2022-12-18T01:59:09.477Z,99.89
2022-12-18T02:02:13.535Z,99.89
2022-12-18T02:05:20.444Z,99.38
2022-12-18T02:08:37.446Z,99.37
2022-12-18T02:11:57.715Z,99.73
2022-12-18T02:15:11.405Z,100.00
2022-12-18T02:18:42.949Z,100.00
2022-12-18T02:21:53.168Z,100.00
2022-12-18T02:25:25.243Z,100.00
2022-12-18T02:28:33.316Z,99.49
2022-12-18T02:31:41.380Z,100.00
2022-12-18T02:34:44.986Z,100.00
2022-12-18T02:37:49.358Z,100.00
2022-12-18T02:40:54.892Z,99.17
2022-12-18T02:44:02.701Z,99.50
2022-12-18T02:47:07.291Z,99.96
2022-12-18T02:50:32.467Z,99.36
2022-12-18T02:53:47.616Z,98.73
2022-12-18T02:56:53.451Z,98.52
2022-12-18T03:00:04.940Z,98.54
2022-12-18T03:03:32.456Z,98.81
2022-12-18T03:06:42.297Z,99.69
2022-12-18T03:09:49.581Z,99.80
2022-12-18T03:12:56.013Z,99.84
2022-12-18T03:16:00.401Z,99.25
2022-12-18T03:19:07.170Z,99.01
2022-12-18T03:22:11.289Z,99.59
2022-12-18T03:25:16.279Z,99.24
2022-12-18T03:28:22.560Z,99.59
2022-12-18T03:31:27.544Z,99.42
2022-12-18T03:34:34.325Z,99.02
2022-12-18T03:37:39.588Z,98.67
2022-12-18T03:41:03.092Z,98.55
2022-12-18T03:44:29.437Z,98.42
2022-12-18T03:47:40.664Z,98.80
2022-12-18T03:50:59.115Z,99.63
2022-12-18T03:54:06.521Z,99.34
2022-12-18T03:57:19.895Z,99.07
2022-12-18T04:00:24.059Z,99.92
2022-12-18T04:03:30.264Z,100.00
2022-12-18T04:06:33.563Z,100.00
2022-12-18T04:09:37.987Z,99.42
2022-12-18T04:12:40.951Z,98.95
2022-12-18T04:15:46.324Z,98.83
2022-12-18T04:18:49.810Z,99.23
2022-12-18T04:21:55.213Z,98.40
2022-12-18T04:24:59.091Z,98.19
2022-12-18T04:28:04.159Z,98.46
2022-12-18T04:31:07.383Z,98.64
2022-12-18T04:34:10.719Z,98.21
2022-12-18T04:37:13.861Z,98.73
2022-12-18T04:40:17.280Z,98.62
2022-12-18T04:43:20.897Z,100.00
2022-12-18T04:46:24.217Z,100.00
2022-12-18T04:49:27.320Z,100.00
2022-12-18T04:52:30.579Z,100.00
2022-12-18T04:55:33.519Z,100.00
2022-12-18T04:58:38.094Z,100.00
2022-12-18T05:01:41.284Z,100.00
2022-12-18T05:04:45.452Z,100.00
2022-12-18T05:07:48.744Z,100.00
2022-12-18T05:11:06.824Z,100.00
2022-12-18T05:14:09.658Z,100.00
2022-12-18T05:17:12.844Z,100.00
2022-12-18T05:20:16.693Z,100.00
2022-12-18T05:23:20.646Z,100.00
2022-12-18T05:26:24.882Z,100.00
2022-12-18T05:29:28.054Z,100.00
2022-12-18T05:32:31.688Z,100.00
2022-12-18T05:35:34.778Z,99.61
2022-12-18T05:38:39.108Z,99.54
2022-12-18T05:41:42.476Z,99.27
2022-12-18T05:44:46.210Z,99.18
2022-12-18T05:47:49.427Z,98.95
2022-12-18T05:50:52.622Z,98.62
2022-12-18T05:53:56.207Z,98.49
2022-12-18T05:56:59.375Z,98.47
2022-12-18T06:00:03.162Z,98.72
2022-12-18T06:03:15.152Z,99.51
2022-12-18T06:06:21.213Z,99.14
2022-12-18T06:09:24.183Z,99.67
2022-12-18T06:12:27.438Z,99.67
2022-12-18T06:15:30.304Z,99.68
2022-12-18T06:18:33.958Z,100.00
2022-12-18T06:21:36.900Z,100.00
2022-12-18T06:24:40.964Z,100.00
2022-12-18T06:27:44.738Z,100.00
2022-12-18T06:30:49.451Z,99.56
2022-12-18T06:33:54.036Z,99.24
2022-12-18T06:36:58.566Z,99.59
2022-12-18T06:40:02.192Z,100.00
2022-12-18T06:43:05.451Z,100.00
2022-12-18T06:46:08.475Z,99.88
2022-12-18T06:49:11.869Z,98.50
2022-12-18T06:52:15.583Z,97.74
2022-12-18T06:55:18.883Z,97.92
2022-12-18T06:58:22.328Z,97.71
2022-12-18T07:01:25.374Z,97.22
2022-12-18T07:04:31.677Z,97.01
2022-12-18T07:07:35.662Z,97.37
2022-12-18T07:10:47.468Z,98.59
2022-12-18T07:13:53.978Z,98.01
2022-12-18T07:16:56.886Z,98.11
2022-12-18T07:20:00.124Z,97.90
2022-12-18T07:23:04.634Z,96.95
2022-12-18T07:26:10.059Z,96.16
2022-12-18T07:29:13.117Z,96.46
2022-12-18T07:32:16.285Z,97.23
2022-12-18T07:35:24.765Z,96.99
2022-12-18T07:38:28.556Z,96.99
2022-12-18T07:41:32.948Z,96.67
2022-12-18T07:44:40.081Z,95.96
2022-12-18T07:47:43.020Z,95.00
2022-12-18T07:50:46.211Z,94.57
2022-12-18T07:53:52.226Z,94.45
2022-12-18T07:56:55.952Z,94.43
2022-12-18T07:59:59.578Z,94.08
2022-12-18T08:03:03.112Z,93.75
2022-12-18T08:06:08.772Z,93.48
2022-12-18T08:09:11.956Z,93.77
2022-12-18T08:12:15.169Z,93.41
2022-12-18T08:15:18.471Z,92.76
2022-12-18T08:18:21.603Z,92.73
2022-12-18T08:21:27.294Z,92.56
2022-12-18T08:24:30.616Z,92.30
2022-12-18T08:27:33.431Z,91.91
2022-12-18T08:30:37.745Z,92.66
2022-12-18T08:33:42.032Z,92.11
2022-12-18T08:36:45.496Z,92.24
2022-12-18T08:39:48.467Z,93.32
2022-12-18T08:43:10.475Z,92.90
2022-12-18T08:46:13.633Z,92.41
2022-12-18T08:49:16.944Z,92.20
2022-12-18T08:52:19.867Z,92.23
2022-12-18T08:55:23.219Z,91.51
2022-12-18T08:58:26.350Z,92.47
2022-12-18T09:01:29.684Z,91.99
2022-12-18T09:04:32.984Z,89.71
2022-12-18T09:07:36.157Z,89.21
2022-12-18T09:10:46.401Z,91.45
2022-12-18T09:13:50.135Z,91.28
2022-12-18T09:16:53.125Z,89.75
2022-12-18T09:19:56.466Z,88.85
2022-12-18T09:23:00.610Z,88.29
2022-12-18T09:26:03.957Z,88.74
2022-12-18T09:29:08.793Z,88.52
2022-12-18T09:32:18.940Z,88.72
2022-12-18T09:35:25.297Z,89.09
2022-12-18T09:38:28.839Z,88.45
2022-12-18T09:41:56.945Z,86.91
2022-12-18T09:45:00.738Z,87.47
2022-12-18T09:48:04.965Z,87.23
2022-12-18T09:51:21.845Z,87.22
2022-12-18T09:54:33.244Z,85.83
2022-12-18T09:57:40.661Z,85.07
2022-12-18T10:00:43.811Z,85.52
2022-12-18T10:03:47.314Z,84.63
2022-12-18T10:07:08.936Z,84.16
2022-12-18T10:10:28.617Z,84.00
2022-12-18T10:13:37.766Z,82.79
2022-12-18T10:16:53.081Z,81.55
2022-12-18T10:19:59.807Z,81.44
2022-12-18T10:23:16.047Z,82.09
2022-12-18T10:26:19.358Z,81.02
2022-12-18T10:29:23.968Z,79.42
2022-12-18T10:32:29.827Z,80.03
2022-12-18T10:35:33.068Z,79.05
2022-12-18T10:38:36.059Z,79.25
2022-12-18T10:41:39.233Z,79.50
2022-12-18T10:44:42.157Z,78.08
2022-12-18T10:47:47.745Z,78.78
2022-12-18T10:54:23.344Z,78.33
2022-12-18T10:57:32.742Z,76.31
2022-12-18T11:00:37.165Z,76.35
2022-12-18T11:03:45.024Z,75.05
2022-12-18T11:07:01.181Z,74.36
2022-12-18T11:10:04.073Z,73.60
2022-12-18T11:13:28.096Z,73.51
2022-12-18T11:16:34.928Z,71.88
2022-12-18T11:19:40.920Z,70.60
2022-12-18T11:22:44.047Z,68.79
2022-12-18T11:25:59.145Z,69.98
2022-12-18T11:29:18.438Z,68.94
2022-12-18T11:32:35.643Z,64.38
2022-12-18T11:35:43.495Z,63.30
2022-12-18T11:38:48.149Z,62.98
2022-12-18T11:42:10.304Z,61.67
2022-12-18T11:45:14.662Z,59.28
2022-12-18T11:48:22.674Z,57.01
2022-12-18T11:51:38.569Z,55.62
2022-12-18T11:54:41.549Z,52.84
2022-12-18T11:57:50.718Z,54.71
2022-12-18T12:01:13.274Z,51.83
2022-12-18T12:04:42.884Z,50.77
2022-12-18T12:08:07.244Z,46.90
2022-12-18T12:11:13.555Z,47.81
2022-12-18T12:14:40.572Z,46.12
2022-12-18T12:17:51.499Z,45.39
2022-12-18T12:21:17.367Z,44.22
2022-12-18T12:24:39.417Z,45.08
2022-12-18T12:27:52.385Z,43.61
2022-12-18T12:31:01.620Z,43.37
2022-12-18T12:34:16.515Z,41.05
2022-12-18T12:37:19.911Z,40.83
2022-12-18T12:41:02.265Z,39.93
2022-12-18T12:43:50.790Z,41.39
2022-12-18T12:46:58.915Z,39.28
2022-12-18T12:50:05.889Z,39.39
2022-12-18T12:53:19.510Z,39.16
2022-12-18T12:56:23.463Z,39.73
2022-12-18T12:59:54.314Z,36.93
2022-12-18T13:03:13.709Z,38.43
2022-12-18T13:06:44.511Z,37.02
2022-12-18T13:10:12.093Z,36.10
2022-12-18T13:13:23.329Z,37.42
2022-12-18T13:16:28.688Z,38.10
2022-12-18T13:19:31.627Z,38.25
2022-12-18T13:22:36.426Z,36.38
2022-12-18T13:25:39.426Z,38.44
2022-12-18T13:28:49.040Z,38.29
2022-12-18T13:31:51.859Z,38.81
2022-12-18T13:35:23.230Z,37.74
2022-12-18T13:38:27.446Z,36.24
2022-12-18T13:41:30.612Z,35.49
2022-12-18T13:44:40.824Z,35.37
2022-12-18T13:47:45.022Z,35.81
2022-12-18T13:51:04.921Z,35.99
2022-12-18T13:54:15.321Z,38.54
2022-12-18T13:57:29.163Z,37.91
2022-12-18T14:00:33.107Z,38.60
2022-12-18T14:03:36.793Z,38.89
2022-12-18T14:06:40.003Z,42.66
2022-12-18T14:10:18.837Z,41.41
2022-12-18T14:13:28.017Z,38.47
2022-12-18T14:16:31.473Z,41.65
2022-12-18T14:19:35.397Z,42.22
2022-12-18T14:22:38.561Z,42.46
2022-12-18T14:25:47.304Z,43.74
2022-12-18T14:28:50.527Z,47.91
2022-12-18T14:32:21.059Z,47.57
2022-12-18T14:35:25.212Z,50.09
2022-12-18T14:38:50.856Z,50.86
2022-12-18T14:41:54.393Z,54.38
2022-12-18T14:45:41.499Z,55.45
2022-12-18T14:48:48.567Z,58.13
2022-12-18T14:51:54.317Z,60.54
2022-12-18T14:54:57.595Z,62.77
2022-12-18T14:58:00.863Z,64.68
2022-12-18T15:01:04.545Z,65.94
2022-12-18T15:04:37.928Z,66.72
2022-12-18T15:07:44.208Z,68.57
2022-12-18T15:10:52.439Z,70.15
2022-12-18T15:13:56.717Z,70.67
2022-12-18T15:17:02.404Z,72.82
2022-12-18T15:20:11.646Z,73.76
2022-12-18T15:23:46.858Z,74.46
2022-12-18T15:26:51.583Z,75.38
2022-12-18T15:30:03.720Z,76.47
2022-12-18T15:33:28.891Z,76.76
2022-12-18T15:36:32.792Z,76.96
2022-12-18T15:39:37.029Z,77.73
2022-12-18T15:42:58.495Z,78.42
2022-12-18T15:46:18.128Z,78.97
2022-12-18T15:49:22.340Z,79.73
2022-12-18T15:52:27.938Z,80.20
2022-12-18T15:55:50.191Z,80.60
2022-12-18T15:58:55.323Z,80.99
2022-12-18T16:01:58.963Z,81.41
2022-12-18T16:05:04.613Z,81.63
2022-12-18T16:08:08.094Z,81.97
2022-12-18T16:11:42.174Z,82.53
2022-12-18T16:14:47.892Z,82.91
2022-12-18T16:17:54.208Z,83.70
2022-12-18T16:21:00.442Z,83.67
2022-12-18T16:24:05.144Z,84.49
2022-12-18T16:27:09.464Z,84.56
2022-12-18T16:30:19.984Z,84.56
2022-12-18T16:33:24.017Z,84.78
2022-12-18T16:36:28.760Z,85.03
2022-12-18T16:39:34.773Z,85.19
2022-12-18T16:42:41.291Z,85.01
2022-12-18T16:45:46.712Z,85.05
2022-12-18T16:48:51.478Z,85.39
2022-12-18T16:51:57.077Z,85.56
2022-12-18T16:55:02.313Z,86.01
2022-12-18T16:58:06.306Z,86.51
2022-12-18T17:01:12.333Z,86.93
2022-12-18T17:04:17.902Z,87.40
2022-12-18T17:07:24.049Z,87.74
2022-12-18T17:10:29.053Z,87.86
2022-12-18T17:13:35.677Z,87.96
2022-12-18T17:16:40.153Z,87.76
2022-12-18T17:19:45.097Z,88.22
2022-12-18T17:22:49.361Z,88.59
2022-12-18T17:25:57.905Z,88.94
2022-12-18T17:29:02.392Z,89.40
2022-12-18T17:32:06.956Z,89.62
2022-12-18T17:35:10.797Z,89.76
2022-12-18T17:38:15.533Z,89.91
2022-12-18T17:41:21.037Z,89.95
2022-12-18T17:44:26.029Z,90.10
2022-12-18T17:47:31.693Z,90.03
2022-12-18T17:50:37.555Z,90.14
2022-12-18T17:53:44.409Z,90.26
2022-12-18T17:56:49.402Z,89.91
2022-12-18T17:59:54.140Z,90.36
2022-12-18T18:03:09.314Z,91.03
2022-12-18T18:06:14.941Z,91.38
2022-12-18T18:09:20.189Z,91.22
2022-12-18T18:12:43.158Z,91.60
2022-12-18T18:15:59.172Z,91.78
2022-12-18T18:19:13.588Z,91.98
2022-12-18T18:22:19.683Z,92.11
2022-12-18T18:25:25.521Z,92.65
2022-12-18T18:28:29.974Z,93.09
2022-12-18T18:31:40.696Z,93.01
2022-12-18T18:34:45.019Z,92.96
2022-12-18T18:37:50.181Z,92.72
2022-12-18T18:41:01.148Z,92.57
2022-12-18T18:44:07.193Z,92.43
2022-12-18T18:47:11.893Z,92.32
2022-12-18T18:50:17.754Z,92.31
2022-12-18T18:53:21.437Z,92.10
2022-12-18T18:57:04.116Z,92.54
2022-12-18T18:59:56.151Z,92.79
2022-12-18T19:03:01.052Z,92.49
2022-12-18T19:06:07.362Z,92.73
2022-12-18T19:09:13.065Z,92.42
2022-12-18T19:12:37.857Z,92.57
2022-12-18T19:15:46.096Z,92.37
2022-12-18T19:18:50.273Z,93.03
2022-12-18T19:21:55.923Z,93.22
2022-12-18T19:25:01.906Z,93.62
2022-12-18T19:28:06.877Z,93.70
2022-12-18T19:31:16.099Z,93.46
2022-12-18T19:34:22.972Z,93.42
2022-12-18T19:37:27.818Z,94.06
2022-12-18T19:40:32.958Z,94.81
2022-12-18T19:43:39.458Z,94.88
2022-12-18T19:46:46.597Z,94.40
2022-12-18T19:49:54.440Z,94.04
2022-12-18T19:53:00.975Z,93.29
2022-12-18T19:56:07.882Z,92.51
2022-12-18T19:59:12.597Z,92.59
2022-12-18T20:02:16.927Z,92.37
2022-12-18T20:05:25.752Z,92.80
2022-12-18T20:08:30.250Z,92.46
2022-12-18T20:11:42.068Z,93.01
2022-12-18T20:14:47.382Z,92.76
2022-12-18T20:17:53.666Z,92.04
2022-12-18T20:21:00.044Z,92.49
2022-12-18T20:24:10.184Z,92.42
2022-12-18T20:27:19.479Z,92.45
2022-12-18T20:30:24.052Z,92.57
2022-12-18T20:33:28.140Z,92.65
2022-12-18T20:36:34.251Z,92.61
2022-12-18T20:39:39.964Z,92.84
2022-12-18T20:42:45.421Z,93.07
2022-12-18T20:45:48.772Z,93.17
2022-12-18T20:48:53.228Z,93.57
2022-12-18T20:52:00.081Z,93.79
2022-12-18T20:55:05.521Z,93.83
2022-12-18T20:58:08.973Z,94.25
2022-12-18T21:01:14.889Z,94.14
2022-12-18T21:04:19.562Z,94.27
2022-12-18T21:07:23.399Z,94.11
2022-12-18T21:10:27.748Z,95.38
2022-12-18T21:13:31.318Z,94.76
2022-12-18T21:16:36.516Z,94.68
2022-12-18T21:19:41.210Z,94.38
2022-12-18T21:22:44.456Z,93.93
2022-12-18T21:25:49.961Z,93.86
2022-12-18T21:29:01.538Z,93.86
2022-12-18T21:32:05.490Z,93.91
2022-12-18T21:35:09.091Z,93.92
2022-12-18T21:38:12.239Z,94.36
2022-12-18T21:41:41.664Z,94.34
2022-12-18T21:44:48.026Z,94.29
2022-12-18T21:47:51.008Z,94.51
2022-12-18T21:50:54.167Z,94.67
2022-12-18T21:53:57.161Z,94.84
2022-12-18T21:57:02.512Z,95.18
2022-12-18T22:00:06.839Z,94.91
2022-12-18T22:03:18.665Z,94.72
2022-12-18T22:06:22.548Z,94.57
2022-12-18T22:09:25.961Z,94.23
2022-12-18T22:12:43.574Z,93.99
2022-12-18T22:15:47.513Z,93.96
2022-12-18T22:18:50.881Z,94.13
2022-12-18T22:21:54.419Z,93.96
2022-12-18T22:24:57.590Z,94.01
2022-12-18T22:28:19.299Z,94.62
2022-12-18T22:31:22.506Z,94.69
2022-12-18T22:34:26.609Z,94.10
2022-12-18T22:37:29.762Z,94.22
2022-12-18T22:40:32.647Z,94.05
2022-12-18T22:43:35.973Z,94.19
2022-12-18T22:46:50.045Z,94.56
2022-12-18T22:50:12.499Z,94.46
2022-12-18T22:53:15.413Z,94.05
2022-12-18T22:56:20.361Z,93.93
2022-12-18T22:59:24.503Z,94.20
2022-12-18T23:02:27.798Z,94.27
2022-12-18T23:05:31.322Z,94.18
2022-12-18T23:08:34.891Z,94.24
2022-12-18T23:11:38.790Z,94.51
2022-12-18T23:14:43.687Z,94.29
2022-12-18T23:17:46.776Z,94.59
2022-12-18T23:20:51.198Z,94.93
2022-12-18T23:23:54.453Z,94.78
2022-12-18T23:26:57.800Z,94.92
2022-12-18T23:30:00.723Z,94.78
2022-12-18T23:33:04.211Z,94.95
2022-12-18T23:36:08.576Z,94.72
2022-12-18T23:39:12.556Z,94.73
2022-12-18T23:42:30.256Z,95.13
2022-12-18T23:45:37.728Z,95.00
2022-12-18T23:48:41.568Z,94.31
2022-12-18T23:51:44.699Z,94.71
2022-12-18T23:54:47.612Z,94.70
2022-12-18T23:57:51.119Z,94.50
